createdAt,value
2023-02-08T00:01:25.380Z,1.20
2023-02-08T00:03:54.173Z,1.20
2023-02-08T00:06:22.418Z,1.20
2023-02-08T00:08:50.432Z,1.20
2023-02-08T00:11:20.530Z,1.20
2023-02-08T00:13:48.696Z,1.20
2023-02-08T00:16:18.854Z,1.20
2023-02-08T00:18:47.280Z,1.20
2023-02-08T00:21:18.008Z,1.20
2023-02-08T00:23:46.788Z,1.20
2023-02-08T00:26:16.273Z,1.10
2023-02-08T00:28:45.807Z,1.10
2023-02-08T00:31:14.457Z,1.10
2023-02-08T00:33:42.596Z,1.10
2023-02-08T00:36:12.881Z,1.10
2023-02-08T00:38:41.464Z,1.10
2023-02-08T00:41:10.299Z,1.10
2023-02-08T00:43:38.328Z,1.10
2023-02-08T00:46:10.075Z,1.00
2023-02-08T00:48:38.202Z,1.10
2023-02-08T00:51:08.012Z,1.00
2023-02-08T00:53:38.262Z,1.00
2023-02-08T00:56:07.310Z,1.00
2023-02-08T00:58:36.088Z,1.00
2023-02-08T01:01:05.540Z,0.90
2023-02-08T01:03:36.733Z,0.90
2023-02-08T01:06:06.939Z,0.00
2023-02-08T01:08:35.066Z,0.90
2023-02-08T01:11:08.624Z,0.90
2023-02-08T01:13:37.958Z,0.80
2023-02-08T01:16:11.688Z,0.80
2023-02-08T01:18:41.963Z,0.80
2023-02-08T01:21:13.919Z,0.80
2023-02-08T01:23:42.967Z,0.80
2023-02-08T01:26:11.739Z,0.70
2023-02-08T01:28:41.277Z,0.70
2023-02-08T01:31:11.543Z,0.70
2023-02-08T01:33:41.630Z,0.70
2023-02-08T01:36:10.917Z,0.70
2023-02-08T01:38:40.736Z,0.70
2023-02-08T01:41:12.720Z,0.70
2023-02-08T01:44:01.015Z,0.70
2023-02-08T01:46:29.262Z,0.70
2023-02-08T01:49:01.684Z,0.70
2023-02-08T01:51:33.203Z,0.70
2023-02-08T01:54:04.617Z,0.70
2023-02-08T01:56:35.915Z,0.60
2023-02-08T01:59:07.717Z,0.70
2023-02-08T02:01:36.946Z,0.70
2023-02-08T02:04:08.583Z,0.60
2023-02-08T02:06:40.993Z,0.60
2023-02-08T02:09:18.826Z,0.60
2023-02-08T02:11:47.547Z,0.60
2023-02-08T02:14:17.376Z,0.60
2023-02-08T02:16:45.529Z,0.50
2023-02-08T02:19:22.588Z,0.50
2023-02-08T02:22:03.180Z,0.50
2023-02-08T02:25:19.734Z,0.50
2023-02-08T02:28:27.100Z,0.50
2023-02-08T02:31:33.016Z,0.50
2023-02-08T02:34:06.366Z,0.50
2023-02-08T02:36:48.197Z,0.50
2023-02-08T02:39:22.648Z,0.50
2023-02-08T02:42:15.163Z,0.50
2023-02-08T02:44:53.533Z,0.40
2023-02-08T02:47:31.905Z,0.40
2023-02-08T02:50:06.725Z,0.40
2023-02-08T02:52:42.763Z,0.40
2023-02-08T02:55:16.351Z,0.40
2023-02-08T02:57:46.529Z,0.40
2023-02-08T03:00:22.948Z,0.30
2023-02-08T03:02:53.154Z,0.30
2023-02-08T03:05:21.211Z,0.30
2023-02-08T03:08:14.865Z,0.30
2023-02-08T03:10:54.580Z,0.30
2023-02-08T03:13:33.665Z,0.30
2023-02-08T03:16:12.848Z,0.30
2023-02-08T03:18:56.332Z,0.30
2023-02-08T03:21:34.864Z,0.30
2023-02-08T03:24:09.133Z,0.30
2023-02-08T03:26:43.343Z,0.30
2023-02-08T03:29:22.804Z,0.20
2023-02-08T03:31:58.042Z,0.20
2023-02-08T03:34:36.352Z,-1.10
2023-02-08T03:37:09.105Z,0.20
2023-02-08T03:39:39.279Z,0.20
2023-02-08T03:42:13.943Z,0.20
2023-02-08T03:44:47.856Z,0.20
2023-02-08T03:47:21.286Z,0.20
2023-02-08T03:49:53.843Z,0.20
2023-02-08T03:52:24.842Z,0.20
2023-02-08T03:54:57.114Z,0.20
2023-02-08T03:57:28.233Z,0.20
2023-02-08T03:59:58.791Z,0.20
2023-02-08T04:02:31.498Z,0.10
2023-02-08T04:05:03.052Z,0.10
2023-02-08T04:07:31.612Z,0.10
2023-02-08T04:10:00.215Z,0.10
2023-02-08T04:12:28.436Z,0.10
2023-02-08T04:14:56.966Z,0.10
2023-02-08T04:17:25.070Z,0.10
2023-02-08T04:19:53.133Z,0.10
2023-02-08T04:22:23.136Z,0.00
2023-02-08T04:24:51.226Z,0.00
2023-02-08T04:27:19.894Z,0.00
2023-02-08T04:29:48.632Z,0.00
2023-02-08T04:32:16.765Z,0.00
2023-02-08T04:34:44.973Z,0.00
2023-02-08T04:37:13.137Z,0.00
2023-02-08T04:39:42.663Z,0.00
2023-02-08T04:42:10.956Z,-0.10
2023-02-08T04:44:39.470Z,-0.10
2023-02-08T04:47:07.532Z,-0.20
2023-02-08T04:49:36.344Z,-0.10
2023-02-08T04:52:05.584Z,-0.20
2023-02-08T04:54:34.693Z,-0.20
2023-02-08T04:57:04.684Z,-0.20
2023-02-08T04:59:32.797Z,-0.20
2023-02-08T05:02:01.411Z,-0.20
2023-02-08T05:04:30.023Z,-0.30
2023-02-08T05:06:58.153Z,-0.30
2023-02-08T05:09:26.741Z,-0.30
2023-02-08T05:11:55.338Z,-0.30
2023-02-08T05:14:24.760Z,-0.30
2023-02-08T05:16:53.309Z,-0.30
2023-02-08T05:19:21.809Z,-0.30
2023-02-08T05:21:50.416Z,-0.30
2023-02-08T05:24:19.186Z,-0.30
2023-02-08T05:26:47.303Z,-0.30
2023-02-08T05:29:15.917Z,-0.30
2023-02-08T05:31:46.075Z,-0.30
2023-02-08T05:34:14.824Z,-0.30
2023-02-08T05:36:43.037Z,-0.30
2023-02-08T05:39:11.380Z,-0.30
2023-02-08T05:41:39.481Z,-0.30
2023-02-08T05:44:08.050Z,-0.40
2023-02-08T05:46:38.143Z,-0.40
2023-02-08T05:49:08.704Z,-0.40
2023-02-08T05:51:37.182Z,-0.40
2023-02-08T05:54:05.888Z,-0.40
2023-02-08T05:56:34.007Z,-0.50
2023-02-08T05:59:02.504Z,-0.50
2023-02-08T06:01:31.780Z,-0.50
2023-02-08T06:04:00.794Z,-0.50
2023-02-08T06:06:30.523Z,-0.50
2023-02-08T06:08:59.173Z,-0.50
2023-02-08T06:11:28.567Z,-0.60
2023-02-08T06:13:57.177Z,-0.60
2023-02-08T06:16:25.763Z,-0.60
2023-02-08T06:18:53.941Z,-0.60
2023-02-08T06:21:24.478Z,-0.60
2023-02-08T06:23:54.084Z,-0.70
2023-02-08T06:26:22.702Z,-0.70
2023-02-08T06:28:50.805Z,-0.70
2023-02-08T06:31:19.424Z,-0.70
2023-02-08T06:33:47.575Z,-0.70
2023-02-08T06:36:16.134Z,-0.80
2023-02-08T06:38:44.769Z,-0.70
2023-02-08T06:41:14.249Z,-0.80
2023-02-08T06:43:42.880Z,-0.80
2023-02-08T06:46:11.054Z,-0.80
2023-02-08T06:48:39.857Z,-0.80
2023-02-08T06:51:08.645Z,-0.80
2023-02-08T06:53:36.777Z,-0.80
2023-02-08T06:56:05.060Z,-0.80
2023-02-08T06:58:35.032Z,-0.80
2023-02-08T07:01:03.706Z,-0.80
2023-02-08T07:03:31.871Z,-0.80
2023-02-08T07:06:05.224Z,-0.80
2023-02-08T07:08:34.244Z,-0.80
2023-02-08T07:11:07.393Z,-0.80
2023-02-08T07:13:37.158Z,-0.80
2023-02-08T07:16:05.926Z,-0.80
2023-02-08T07:18:35.024Z,-0.80
2023-02-08T07:21:03.977Z,-0.80
2023-02-08T07:23:32.961Z,-0.80
2023-02-08T07:26:01.744Z,-0.80
2023-02-08T07:28:30.580Z,-0.80
2023-02-08T07:31:00.189Z,-0.80
2023-02-08T07:33:28.902Z,-0.80
2023-02-08T07:35:57.089Z,-0.80
2023-02-08T07:38:25.601Z,-0.80
2023-02-08T07:40:54.205Z,-0.80
2023-02-08T07:43:22.748Z,-0.80
2023-02-08T07:45:51.362Z,-0.70
2023-02-08T07:48:21.336Z,-0.80
2023-02-08T07:50:49.426Z,-0.70
2023-02-08T07:53:17.909Z,-0.70
2023-02-08T07:55:47.894Z,-0.70
2023-02-08T07:58:16.497Z,-0.70
2023-02-08T08:00:45.242Z,-0.70
2023-02-08T08:03:13.348Z,-0.70
2023-02-08T08:05:43.876Z,-0.70
2023-02-08T08:08:13.913Z,-0.70
2023-02-08T08:10:42.688Z,-0.70
2023-02-08T08:13:11.426Z,-0.60
2023-02-08T08:15:40.832Z,-0.60
2023-02-08T08:18:09.423Z,-0.60
2023-02-08T08:20:38.159Z,-0.60
2023-02-08T08:23:07.675Z,-0.60
2023-02-08T08:25:36.759Z,-0.50
2023-02-08T08:28:05.119Z,-0.50
2023-02-08T08:30:33.311Z,-0.50
2023-02-08T08:33:01.961Z,-0.50
2023-02-08T08:35:30.042Z,-0.40
2023-02-08T08:37:58.645Z,-0.40
2023-02-08T08:40:28.112Z,-0.40
2023-02-08T08:42:57.027Z,-0.30
2023-02-08T08:45:25.723Z,-0.30
2023-02-08T08:47:54.343Z,-0.30
2023-02-08T08:50:23.033Z,-0.20
2023-02-08T08:52:51.224Z,-0.20
2023-02-08T08:55:19.912Z,-0.20
2023-02-08T08:57:49.774Z,-0.20
2023-02-08T09:00:19.844Z,-0.10
2023-02-08T09:02:47.911Z,-0.10
2023-02-08T09:05:16.687Z,-0.10
2023-02-08T09:07:44.740Z,-0.10
2023-02-08T09:10:13.335Z,0.00
2023-02-08T09:12:41.510Z,0.10
2023-02-08T09:15:12.292Z,0.10
2023-02-08T09:17:40.382Z,0.20
2023-02-08T09:20:09.514Z,0.20
2023-02-08T09:22:37.575Z,0.30
2023-02-08T09:25:08.003Z,0.30
2023-02-08T09:27:36.956Z,0.40
2023-02-08T09:30:05.421Z,0.50
2023-02-08T09:32:35.510Z,0.60
2023-02-08T09:35:04.319Z,0.70
2023-02-08T09:37:32.921Z,0.80
2023-02-08T09:40:02.295Z,0.80
2023-02-08T09:42:43.344Z,0.90
2023-02-08T09:45:27.770Z,1.00
2023-02-08T09:48:05.453Z,1.10
2023-02-08T09:50:36.988Z,1.20
2023-02-08T09:53:13.110Z,1.20
2023-02-08T09:55:44.718Z,1.30
2023-02-08T09:58:23.493Z,1.40
2023-02-08T10:00:54.085Z,1.50
2023-02-08T10:03:36.578Z,1.50
2023-02-08T10:06:06.591Z,1.60
2023-02-08T10:08:36.617Z,1.70
2023-02-08T10:11:16.024Z,1.70
2023-02-08T10:14:04.424Z,1.80
2023-02-08T10:16:44.346Z,1.80
2023-02-08T10:19:27.784Z,1.90
2023-02-08T10:22:10.645Z,2.00
2023-02-08T10:25:15.846Z,2.10
2023-02-08T10:27:53.977Z,2.10
2023-02-08T10:30:33.404Z,2.20
2023-02-08T10:33:03.817Z,2.30
2023-02-08T10:35:37.817Z,2.30
2023-02-08T10:38:29.700Z,2.40
2023-02-08T10:41:04.615Z,2.40
2023-02-08T10:43:41.012Z,2.50
2023-02-08T10:46:16.523Z,2.60
2023-02-08T10:48:53.917Z,2.60
2023-02-08T10:51:23.550Z,2.70
2023-02-08T10:53:51.853Z,2.70
2023-02-08T10:56:44.789Z,2.80
2023-02-08T10:59:21.647Z,2.90
2023-02-08T11:01:50.913Z,2.90
2023-02-08T11:04:20.259Z,3.00
2023-02-08T11:06:52.249Z,3.00
2023-02-08T11:09:29.871Z,3.10
2023-02-08T11:11:59.742Z,3.20
2023-02-08T11:14:45.588Z,3.30
2023-02-08T11:17:27.416Z,3.30
2023-02-08T11:19:56.600Z,3.40
2023-02-08T11:22:31.059Z,3.50
2023-02-08T11:25:01.454Z,3.60
2023-02-08T11:27:34.964Z,3.60
2023-02-08T11:30:23.764Z,3.70
2023-02-08T11:33:20.017Z,3.80
2023-02-08T11:35:56.301Z,3.90
2023-02-08T11:38:28.932Z,4.00
2023-02-08T11:40:59.440Z,4.10
2023-02-08T11:43:30.977Z,4.20
2023-02-08T11:46:00.663Z,4.30
2023-02-08T11:48:39.898Z,4.40
2023-02-08T11:51:08.578Z,4.60
2023-02-08T11:53:41.825Z,4.70
2023-02-08T11:56:18.960Z,4.90
2023-02-08T11:59:18.113Z,5.00
2023-02-08T12:01:46.563Z,5.20
2023-02-08T12:04:17.433Z,5.30
2023-02-08T12:07:20.082Z,5.50
2023-02-08T12:10:24.350Z,5.60
2023-02-08T12:13:07.976Z,5.80
2023-02-08T12:15:57.769Z,6.00
2023-02-08T12:18:56.373Z,6.20
2023-02-08T12:21:29.976Z,6.30
2023-02-08T12:24:00.670Z,6.50
2023-02-08T12:26:48.039Z,6.70
2023-02-08T12:29:47.383Z,6.80
2023-02-08T12:32:33.172Z,7.00
2023-02-08T12:35:33.250Z,7.20
2023-02-08T12:38:29.677Z,7.40
2023-02-08T12:41:05.980Z,7.60
2023-02-08T12:43:47.094Z,7.80
2023-02-08T12:46:31.745Z,7.90
2023-02-08T12:49:18.261Z,8.10
2023-02-08T12:51:56.374Z,8.30
2023-02-08T12:54:31.578Z,8.40
2023-02-08T12:57:02.998Z,8.60
2023-02-08T12:59:37.556Z,8.80
2023-02-08T13:02:15.184Z,8.90
2023-02-08T13:04:47.238Z,9.10
2023-02-08T13:07:21.782Z,9.20
2023-02-08T13:09:57.938Z,9.40
2023-02-08T13:12:30.982Z,9.50
2023-02-08T13:15:09.215Z,9.70
2023-02-08T13:17:46.493Z,9.90
2023-02-08T13:20:31.109Z,10.00
2023-02-08T13:23:04.294Z,10.20
2023-02-08T13:25:36.400Z,10.30
2023-02-08T13:28:06.712Z,10.40
2023-02-08T13:30:40.186Z,10.60
2023-02-08T13:33:18.553Z,10.70
2023-02-08T13:35:51.517Z,10.80
2023-02-08T13:38:29.936Z,11.00
2023-02-08T13:41:16.039Z,11.10
2023-02-08T13:43:47.741Z,11.20
2023-02-08T13:46:19.023Z,11.40
2023-02-08T13:48:50.212Z,11.50
2023-02-08T13:51:58.691Z,11.50
2023-02-08T13:54:27.427Z,11.70
2023-02-08T13:56:56.059Z,11.80
2023-02-08T13:59:38.334Z,11.80
2023-02-08T14:02:31.817Z,11.90
2023-02-08T14:05:44.164Z,12.00
2023-02-08T14:08:22.616Z,12.10
2023-02-08T14:11:02.168Z,12.20
2023-02-08T14:13:33.968Z,12.30
2023-02-08T14:16:31.400Z,12.40
2023-02-08T14:19:03.429Z,12.50
2023-02-08T14:21:37.322Z,12.60
2023-02-08T14:24:08.613Z,12.70
2023-02-08T14:26:38.483Z,12.70
2023-02-08T14:29:08.717Z,12.80
2023-02-08T14:31:40.548Z,12.90
2023-02-08T14:34:28.404Z,13.00
2023-02-08T14:37:01.848Z,13.00
2023-02-08T14:39:33.950Z,13.10
2023-02-08T14:42:05.963Z,13.20
2023-02-08T14:45:05.618Z,13.30
2023-02-08T14:47:57.991Z,13.30
2023-02-08T14:50:32.991Z,13.40
2023-02-08T14:53:19.860Z,13.50
2023-02-08T14:55:51.921Z,13.50
2023-02-08T14:58:28.595Z,13.60
2023-02-08T15:01:01.328Z,13.50
2023-02-08T15:03:33.668Z,13.50
2023-02-08T15:06:37.023Z,13.50
2023-02-08T15:09:06.701Z,13.40
2023-02-08T15:11:37.422Z,13.10
2023-02-08T15:14:07.560Z,12.90
2023-02-08T15:16:41.616Z,12.50
2023-02-08T15:19:16.526Z,12.20
2023-02-08T15:21:46.472Z,11.90
2023-02-08T15:24:17.305Z,11.60
2023-02-08T15:26:47.020Z,11.30
2023-02-08T15:29:20.999Z,11.00
2023-02-08T15:31:50.354Z,10.70
2023-02-08T15:34:20.601Z,10.50
2023-02-08T15:36:54.505Z,10.20
2023-02-08T15:39:34.353Z,10.00
2023-02-08T15:42:03.049Z,9.80
2023-02-08T15:44:33.348Z,9.60
2023-02-08T15:47:03.540Z,9.40
2023-02-08T15:49:34.395Z,9.10
2023-02-08T15:52:04.377Z,9.00
2023-02-08T15:54:33.551Z,8.80
2023-02-08T15:57:07.181Z,8.60
2023-02-08T15:59:38.821Z,8.50
2023-02-08T16:02:19.690Z,8.30
2023-02-08T16:04:48.131Z,8.10
2023-02-08T16:07:25.919Z,8.00
2023-02-08T16:09:54.373Z,7.80
2023-02-08T16:12:25.391Z,7.70
2023-02-08T16:14:56.427Z,7.60
2023-02-08T16:17:37.751Z,7.40
2023-02-08T16:20:25.552Z,7.30
2023-02-08T16:23:01.616Z,7.20
2023-02-08T16:25:43.102Z,7.00
2023-02-08T16:28:28.608Z,6.90
2023-02-08T16:30:59.201Z,6.80
2023-02-08T16:33:28.463Z,6.70
2023-02-08T16:36:01.838Z,6.70
2023-02-08T16:38:34.335Z,6.60
2023-02-08T16:41:13.038Z,6.40
2023-02-08T16:43:44.373Z,6.40
2023-02-08T16:46:25.679Z,6.30
2023-02-08T16:48:55.877Z,6.20
2023-02-08T16:51:27.563Z,6.10
2023-02-08T16:54:02.489Z,6.10
2023-02-08T16:56:31.583Z,6.00
2023-02-08T16:59:00.101Z,5.90
2023-02-08T17:01:29.493Z,5.70
2023-02-08T17:03:58.171Z,5.70
2023-02-08T17:06:31.048Z,5.60
2023-02-08T17:09:02.230Z,5.60
2023-02-08T17:11:31.225Z,5.50
2023-02-08T17:13:59.885Z,5.40
2023-02-08T17:16:30.064Z,5.40
2023-02-08T17:18:59.590Z,5.30
2023-02-08T17:21:29.731Z,5.30
2023-02-08T17:23:58.077Z,5.30
2023-02-08T17:26:30.141Z,5.20
2023-02-08T17:28:59.949Z,5.20
2023-02-08T17:31:30.974Z,5.10
2023-02-08T17:34:04.386Z,5.10
2023-02-08T17:36:35.584Z,5.00
2023-02-08T17:39:05.202Z,5.00
2023-02-08T17:41:35.966Z,4.90
2023-02-08T17:44:04.666Z,4.90
2023-02-08T17:46:32.790Z,4.80
2023-02-08T17:49:01.755Z,4.80
2023-02-08T17:51:30.643Z,4.70
2023-02-08T17:53:58.718Z,4.70
2023-02-08T17:56:28.553Z,4.60
2023-02-08T17:59:01.374Z,4.60
2023-02-08T18:01:29.518Z,4.50
2023-02-08T18:03:57.864Z,4.50
2023-02-08T18:06:26.618Z,4.50
2023-02-08T18:08:56.174Z,4.40
2023-02-08T18:11:25.026Z,4.40
2023-02-08T18:13:55.425Z,4.30
2023-02-08T18:16:26.479Z,4.30
2023-02-08T18:18:57.480Z,4.30
2023-02-08T18:21:26.645Z,4.30
2023-02-08T18:23:55.830Z,4.20
2023-02-08T18:26:26.520Z,4.30
2023-02-08T18:28:55.056Z,4.20
2023-02-08T18:31:25.464Z,4.20
2023-02-08T18:33:54.184Z,4.10
2023-02-08T18:36:23.224Z,4.10
2023-02-08T18:38:53.366Z,4.10
2023-02-08T18:41:25.253Z,4.00
2023-02-08T18:43:55.387Z,4.00
2023-02-08T18:46:26.552Z,4.00
2023-02-08T18:48:55.647Z,4.00
2023-02-08T18:51:25.031Z,3.90
2023-02-08T18:53:55.691Z,3.90
2023-02-08T18:56:26.161Z,3.90
2023-02-08T18:58:55.243Z,3.90
2023-02-08T19:01:25.685Z,3.90
2023-02-08T19:03:55.997Z,3.80
2023-02-08T19:06:25.750Z,3.80
2023-02-08T19:08:55.580Z,3.80
2023-02-08T19:11:25.536Z,3.70
2023-02-08T19:13:56.434Z,3.70
2023-02-08T19:16:27.704Z,3.60
2023-02-08T19:18:56.934Z,3.70
2023-02-08T19:21:25.309Z,3.60
2023-02-08T19:23:54.828Z,3.60
2023-02-08T19:26:25.500Z,3.60
2023-02-08T19:28:57.605Z,3.50
2023-02-08T19:31:29.599Z,3.50
2023-02-08T19:34:00.390Z,3.50
2023-02-08T19:36:31.033Z,3.40
2023-02-08T19:39:00.612Z,3.40
2023-02-08T19:41:31.019Z,3.40
2023-02-08T19:43:59.970Z,3.30
2023-02-08T19:46:29.464Z,3.30
2023-02-08T19:49:00.686Z,3.30
2023-02-08T19:51:29.701Z,3.30
2023-02-08T19:53:58.817Z,3.20
2023-02-08T19:56:27.423Z,3.20
2023-02-08T19:58:55.445Z,3.10
2023-02-08T20:01:24.425Z,3.10
2023-02-08T20:03:55.082Z,4.80
2023-02-08T20:06:26.016Z,3.10
2023-02-08T20:08:55.177Z,3.00
2023-02-08T20:11:26.663Z,3.00
2023-02-08T20:13:56.827Z,3.10
2023-02-08T20:16:26.210Z,2.90
2023-02-08T20:18:56.449Z,2.90
2023-02-08T20:21:25.246Z,2.90
2023-02-08T20:23:53.802Z,2.90
2023-02-08T20:26:24.131Z,2.80
2023-02-08T20:28:54.747Z,2.80
2023-02-08T20:31:25.749Z,2.80
2023-02-08T20:33:58.504Z,2.70
2023-02-08T20:36:28.685Z,2.70
2023-02-08T20:38:58.644Z,2.70
2023-02-08T20:41:29.192Z,2.60
2023-02-08T20:43:57.599Z,2.60
2023-02-08T20:46:27.785Z,2.60
2023-02-08T20:49:00.498Z,2.60
2023-02-08T20:51:29.696Z,2.60
2023-02-08T20:54:00.446Z,2.50
2023-02-08T20:56:30.973Z,2.50
2023-02-08T20:59:02.288Z,2.50
2023-02-08T21:01:31.652Z,2.50
2023-02-08T21:04:01.643Z,2.50
2023-02-08T21:06:32.429Z,2.50
2023-02-08T21:09:02.970Z,2.50
2023-02-08T21:11:32.878Z,2.40
2023-02-08T21:14:02.196Z,2.40
2023-02-08T21:16:30.925Z,2.40
2023-02-08T21:19:01.110Z,2.40
2023-02-08T21:21:29.492Z,2.40
2023-02-08T21:23:57.979Z,2.30
2023-02-08T21:26:26.846Z,2.30
2023-02-08T21:28:55.953Z,2.30
2023-02-08T21:31:25.419Z,2.30
2023-02-08T21:33:54.879Z,2.30
2023-02-08T21:36:26.248Z,2.20
2023-02-08T21:38:54.347Z,2.20
2023-02-08T21:41:24.998Z,2.10
2023-02-08T21:43:56.179Z,2.10
2023-02-08T21:46:25.687Z,2.00
2023-02-08T21:49:11.145Z,2.00
2023-02-08T21:51:58.915Z,2.00
2023-02-08T21:54:44.463Z,1.90
2023-02-08T21:57:16.444Z,1.90
2023-02-08T21:59:44.804Z,1.80
2023-02-08T22:02:15.786Z,1.90
2023-02-08T22:04:47.058Z,1.80
2023-02-08T22:07:17.036Z,1.80
2023-02-08T22:09:45.089Z,1.80
2023-02-08T22:12:16.296Z,1.70
2023-02-08T22:14:44.704Z,1.80
2023-02-08T22:17:13.321Z,1.60
2023-02-08T22:19:42.448Z,1.70
2023-02-08T22:22:12.040Z,1.60
2023-02-08T22:24:41.653Z,1.60
2023-02-08T22:27:10.090Z,1.60
2023-02-08T22:29:38.339Z,1.50
2023-02-08T22:32:07.528Z,1.50
2023-02-08T22:34:35.586Z,1.50
2023-02-08T22:37:04.427Z,1.40
2023-02-08T22:39:34.706Z,1.40
2023-02-08T22:42:08.117Z,1.40
2023-02-08T22:44:37.330Z,1.40
2023-02-08T22:47:06.969Z,1.40
2023-02-08T22:49:36.366Z,1.40
2023-02-08T22:52:05.625Z,1.40
2023-02-08T22:54:34.595Z,1.40
2023-02-08T22:57:05.990Z,1.40
2023-02-08T22:59:34.936Z,1.40
2023-02-08T23:02:03.096Z,1.30
2023-02-08T23:04:31.753Z,1.30
2023-02-08T23:07:01.278Z,1.30
2023-02-08T23:09:29.429Z,1.30
2023-02-08T23:11:57.580Z,1.30
2023-02-08T23:14:27.626Z,1.40
2023-02-08T23:16:55.832Z,1.40
2023-02-08T23:19:24.370Z,1.40
2023-02-08T23:21:59.859Z,1.40
2023-02-08T23:24:28.080Z,1.30
2023-02-08T23:26:56.335Z,1.30
2023-02-08T23:29:24.512Z,1.30
2023-02-08T23:31:54.183Z,1.30
2023-02-08T23:34:22.332Z,1.30
2023-02-08T23:36:50.884Z,1.30
2023-02-08T23:39:19.005Z,1.30
2023-02-08T23:41:47.128Z,1.20
2023-02-08T23:44:15.173Z,1.20
2023-02-08T23:46:43.753Z,2.40
2023-02-08T23:49:13.206Z,1.20
2023-02-08T23:51:41.783Z,1.20
2023-02-08T23:54:10.328Z,1.10
2023-02-08T23:56:38.949Z,1.10
2023-02-08T23:59:08.682Z,1.10
